Terminal Aerodrome Forecast
Issued by NWS Rapid City, SD

Home | Current Version | Previous Version | Text Only | Print | Product List | Glossary Off
Versions: 1 2 3 4 5 6 7 8 9 10 11 12 13 14 15 16 17 18 19 20 21 22 23 24

836
FTUS43 KUNR 250520
TAFRAP
TAF
KRAP 250520Z 2506/2606 35010KT P6SM SCT070 OVC150
      TEMPO 2506/2508 -SHRA BKN070
     FM251700 05007KT P6SM BKN120
     FM260200 17007KT P6SM OVC130
     FM260400 23006KT P6SM OVC120=

USA.gov is the U.S. government's official web portal to all federal, state and local government web resources and services.